Appling, Georgia
Current Conditions -  °F | °C
As of 9:55 AM on Monday 22 Dec 2014 (Local Time) from KHQU Reporting Station
Overcast Overcast  
Wind Chill:   Ceiling: 300
Heat Index:   Visibility: 3mi
Dew Point:   Wind: 7mph
Humidity: 100%   Direction: 10°N
Pressure: 30.13"   Gusts: NA
Location:  33.55°N, 82.32°W
Report Text: KHQU 221455Z AUTO 01006KT 3SM OVC003 08/08 A3013 RMK AO1 T00830083
Loading
Personal Weather Stations






























Interactive Weather Map New forecast layout! Learn more

10-Day Weather Forecast

Advertisements
Track Severe Weather on mobile